createdAt,value
2019-03-30T00:00:44.523Z,96395.91
2019-03-30T00:03:33.414Z,96399.83
2019-03-30T00:06:23.016Z,96391.17
2019-03-30T00:09:12.715Z,96392.03
2019-03-30T00:12:02.668Z,96387.30
2019-03-30T00:14:52.250Z,96384.27
2019-03-30T00:17:41.215Z,96384.27
2019-03-30T00:20:30.818Z,96379.09
2019-03-30T00:23:20.098Z,96375.63
2019-03-30T00:26:10.420Z,96375.20
2019-03-30T00:28:59.887Z,96375.64
2019-03-30T00:31:48.682Z,96373.91
2019-03-30T00:36:01.794Z,96371.75
2019-03-30T00:38:51.396Z,96371.74
2019-03-30T00:41:40.887Z,96362.67
2019-03-30T00:44:29.975Z,96369.56
2019-03-30T00:47:19.623Z,96367.41
2019-03-30T00:50:09.625Z,96367.41
2019-03-30T00:52:58.851Z,96369.14
2019-03-30T00:55:47.998Z,96373.03
2019-03-30T00:58:37.657Z,96365.23
2019-03-30T01:01:27.666Z,96363.05
2019-03-30T01:04:16.938Z,96361.75
2019-03-30T01:07:06.475Z,96358.30
2019-03-30T01:09:55.710Z,96358.30
2019-03-30T01:12:44.750Z,96358.70
2019-03-30T01:15:34.172Z,96357.41
2019-03-30T01:18:24.026Z,96362.17
2019-03-30T01:21:13.846Z,96360.02
2019-03-30T01:24:03.663Z,96353.09
2019-03-30T01:26:53.232Z,96353.52
2019-03-30T01:29:42.219Z,96347.90
2019-03-30T01:32:31.280Z,96356.13
2019-03-30T01:35:21.066Z,96352.65
2019-03-30T01:38:10.975Z,96351.78
2019-03-30T01:41:00.088Z,96350.06
2019-03-30T01:43:49.131Z,96351.34
2019-03-30T01:46:38.824Z,96345.30
2019-03-30T01:49:28.281Z,96348.30
2019-03-30T01:52:18.181Z,96350.90
2019-03-30T01:55:08.136Z,96350.45
2019-03-30T01:57:56.664Z,96346.55
2019-03-30T02:00:45.372Z,96349.97
2019-03-30T02:03:34.954Z,96341.35
2019-03-30T02:06:24.604Z,96341.32
2019-03-30T02:09:13.999Z,96343.47
2019-03-30T02:12:03.636Z,96343.04
2019-03-30T02:14:53.418Z,96345.17
2019-03-30T02:17:42.798Z,96339.57
2019-03-30T02:20:51.165Z,96343.89
2019-03-30T02:23:40.399Z,96345.20
2019-03-30T02:26:30.171Z,96343.04
2019-03-30T02:29:19.663Z,96351.61
2019-03-30T02:32:09.024Z,96349.80
2019-03-30T02:34:58.646Z,96355.22
2019-03-30T02:37:48.393Z,96353.86
2019-03-30T02:40:37.718Z,96349.11
2019-03-30T02:43:27.484Z,96348.20
2019-03-30T02:46:17.191Z,96345.59
2019-03-30T02:49:06.776Z,96344.25
2019-03-30T02:51:55.683Z,96347.36
2019-03-30T02:54:45.492Z,96353.46
2019-03-30T02:57:34.533Z,96352.63
2019-03-30T03:00:23.972Z,96347.08
2019-03-30T03:03:13.698Z,96348.65
2019-03-30T03:06:02.470Z,96345.73
2019-03-30T03:08:51.982Z,96339.30
2019-03-30T03:11:41.617Z,96336.66
2019-03-30T03:14:31.133Z,96334.09
2019-03-30T03:17:20.505Z,96332.78
2019-03-30T03:20:10.921Z,96331.07
2019-03-30T03:23:00.198Z,96336.27
2019-03-30T03:25:49.138Z,96324.62
2019-03-30T03:28:38.720Z,96323.79
2019-03-30T03:31:28.241Z,96324.75
2019-03-30T03:34:17.866Z,96325.07
2019-03-30T03:37:07.610Z,96321.98
2019-03-30T03:39:57.107Z,96323.20
2019-03-30T03:42:46.681Z,96327.92
2019-03-30T03:45:36.473Z,96329.64
2019-03-30T03:48:26.057Z,96321.91
2019-03-30T03:51:26.311Z,96327.11
2019-03-30T03:54:08.971Z,96326.22
2019-03-30T03:56:59.732Z,96333.08
2019-03-30T03:59:51.897Z,96328.75
2019-03-30T04:02:42.063Z,96331.70
2019-03-30T04:05:32.022Z,96329.13
2019-03-30T04:08:23.279Z,96326.55
2019-03-30T04:11:14.774Z,96331.30
2019-03-30T04:14:05.267Z,96330.86
2019-03-30T04:16:55.033Z,96334.30
2019-03-30T04:19:43.950Z,96332.50
2019-03-30T04:22:33.572Z,96337.23
2019-03-30T04:25:22.889Z,96341.13
2019-03-30T04:28:12.375Z,96346.27
2019-03-30T04:31:00.947Z,96344.11
2019-03-30T04:33:49.824Z,96343.67
2019-03-30T04:36:39.323Z,96347.85
2019-03-30T04:39:30.330Z,96355.19
2019-03-30T04:42:19.981Z,96353.92
2019-03-30T04:45:09.729Z,96362.92
2019-03-30T04:47:59.117Z,96360.75
2019-03-30T04:50:48.485Z,96358.19
2019-03-30T04:53:37.729Z,96364.70
2019-03-30T04:56:27.621Z,96365.58
2019-03-30T04:59:17.219Z,96362.09
2019-03-30T05:02:06.417Z,96360.66
2019-03-30T05:04:55.898Z,96360.17
2019-03-30T05:07:45.339Z,96370.53
2019-03-30T05:10:35.227Z,96366.63
2019-03-30T05:13:24.295Z,96367.50
2019-03-30T05:16:13.371Z,96376.19
2019-03-30T05:19:02.258Z,96368.94
2019-03-30T05:21:51.734Z,96369.39
2019-03-30T05:24:41.011Z,96371.56
2019-03-30T05:27:30.480Z,96369.84
2019-03-30T05:30:19.779Z,96374.09
2019-03-30T05:33:10.783Z,96375.25
2019-03-30T05:36:00.135Z,96376.98
2019-03-30T05:38:49.349Z,96379.18
2019-03-30T05:41:38.915Z,96375.77
2019-03-30T05:44:28.242Z,96375.34
2019-03-30T05:47:17.587Z,96372.39
2019-03-30T05:50:07.005Z,96377.20
2019-03-30T05:52:56.657Z,96368.55
2019-03-30T05:55:46.621Z,96368.62
2019-03-30T05:58:35.457Z,96371.67
2019-03-30T06:01:25.124Z,96373.42
2019-03-30T06:04:14.755Z,96376.08
2019-03-30T06:07:03.909Z,96373.98
2019-03-30T06:09:53.194Z,96375.79
2019-03-30T06:12:42.171Z,96377.59
2019-03-30T06:15:31.739Z,96373.64
2019-03-30T06:18:21.443Z,96377.06
2019-03-30T06:21:12.139Z,96378.80
2019-03-30T06:24:00.973Z,96377.50
2019-03-30T06:26:50.494Z,96382.80
2019-03-30T06:29:39.647Z,96378.63
2019-03-30T06:32:29.230Z,96369.25
2019-03-30T06:35:18.810Z,96365.90
2019-03-30T06:38:08.556Z,96359.05
2019-03-30T06:40:57.809Z,96350.89
2019-03-30T06:43:47.170Z,96356.95
2019-03-30T06:46:39.476Z,96360.86
2019-03-30T06:49:28.283Z,96367.38
2019-03-30T06:52:17.335Z,96366.55
2019-03-30T06:55:07.114Z,96364.38
2019-03-30T06:57:56.054Z,96357.47
2019-03-30T07:00:48.031Z,96360.08
2019-03-30T07:03:37.575Z,96361.34
2019-03-30T07:06:29.110Z,96363.93
2019-03-30T07:09:21.439Z,96365.67
2019-03-30T07:12:10.876Z,96361.75
2019-03-30T07:15:03.012Z,96359.12
2019-03-30T07:17:54.420Z,96361.25
2019-03-30T07:20:44.257Z,96369.88
2019-03-30T07:23:33.219Z,96361.20
2019-03-30T07:26:22.803Z,96360.27
2019-03-30T07:29:12.583Z,96363.70
2019-03-30T07:32:02.260Z,96366.27
2019-03-30T07:34:51.454Z,96364.48
2019-03-30T07:37:40.855Z,96365.27
2019-03-30T07:40:30.219Z,96366.52
2019-03-30T07:43:19.740Z,96362.99
2019-03-30T07:46:08.996Z,96359.02
2019-03-30T07:48:58.564Z,96361.09
2019-03-30T07:51:47.951Z,96359.70
2019-03-30T07:54:40.494Z,96355.70
2019-03-30T07:57:30.387Z,96358.20
2019-03-30T08:00:19.827Z,96351.15
2019-03-30T08:03:09.867Z,96345.88
2019-03-30T08:05:59.296Z,96345.43
2019-03-30T08:08:48.728Z,96342.73
2019-03-30T08:11:37.502Z,96338.23
2019-03-30T08:14:26.785Z,96332.08
2019-03-30T08:17:16.235Z,96340.22
2019-03-30T08:20:06.579Z,96338.42
2019-03-30T08:22:57.577Z,96343.13
2019-03-30T08:25:46.531Z,96336.08
2019-03-30T08:28:36.445Z,96339.95
2019-03-30T08:31:25.577Z,96346.01
2019-03-30T08:34:14.645Z,96343.75
2019-03-30T08:37:04.082Z,96347.95
2019-03-30T08:39:53.550Z,96333.08
2019-03-30T08:42:43.377Z,96337.28
2019-03-30T08:45:33.012Z,96329.70
2019-03-30T08:48:22.849Z,96332.12
2019-03-30T08:51:12.332Z,96328.49
2019-03-30T08:54:01.707Z,96325.73
2019-03-30T08:56:51.598Z,96321.26
2019-03-30T08:59:40.946Z,96323.29
2019-03-30T09:02:30.704Z,96321.78
2019-03-30T09:05:20.050Z,96314.23
2019-03-30T09:08:09.717Z,96313.08
2019-03-30T09:10:58.631Z,96304.17
2019-03-30T09:13:48.464Z,96295.98
2019-03-30T09:16:38.318Z,96300.08
2019-03-30T09:19:27.480Z,96299.89
2019-03-30T09:22:16.191Z,96294.77
2019-03-30T09:25:05.992Z,96292.08
2019-03-30T09:27:54.827Z,96279.08
2019-03-30T09:30:44.453Z,96286.64
2019-03-30T09:33:33.185Z,96275.09
2019-03-30T09:36:22.209Z,96281.04
2019-03-30T09:39:12.001Z,96276.54
2019-03-30T09:42:01.766Z,96277.50
2019-03-30T09:44:51.503Z,96269.41
2019-03-30T09:47:40.889Z,96262.91
2019-03-30T09:50:30.258Z,96264.16
2019-03-30T09:53:20.031Z,96262.66
2019-03-30T09:56:09.440Z,96268.55
2019-03-30T09:58:58.601Z,96264.38
2019-03-30T10:01:48.353Z,96269.80
2019-03-30T10:04:37.653Z,96270.02
2019-03-30T10:07:26.976Z,96263.70
2019-03-30T10:10:16.639Z,96260.06
2019-03-30T10:13:06.052Z,96266.42
2019-03-30T10:15:55.827Z,96255.77
2019-03-30T10:18:45.556Z,96262.28
2019-03-30T10:21:34.443Z,96250.27
2019-03-30T10:24:37.435Z,96246.69
2019-03-30T10:27:14.763Z,96238.50
2019-03-30T10:30:04.696Z,96238.69
2019-03-30T10:32:54.274Z,96232.73
2019-03-30T10:35:44.009Z,96234.25
2019-03-30T10:38:33.302Z,96232.36
2019-03-30T10:41:22.825Z,96229.94
2019-03-30T10:44:12.437Z,96226.61
2019-03-30T10:47:01.762Z,96224.48
2019-03-30T10:49:54.374Z,96223.92
2019-03-30T10:52:43.714Z,96221.70
2019-03-30T10:55:33.384Z,96219.67
2019-03-30T10:58:23.166Z,96211.53
2019-03-30T11:01:12.720Z,96201.62
2019-03-30T11:04:02.169Z,96197.60
2019-03-30T11:06:51.621Z,96200.75
2019-03-30T11:09:41.054Z,96201.59
2019-03-30T11:12:30.133Z,96198.63
2019-03-30T11:15:19.204Z,96191.55
2019-03-30T11:18:10.586Z,96197.72
2019-03-30T11:21:04.076Z,96195.26
2019-03-30T11:23:53.626Z,96195.30
2019-03-30T11:26:42.762Z,96181.19
2019-03-30T11:29:32.346Z,96181.19
2019-03-30T11:32:21.237Z,96170.22
2019-03-30T11:35:10.974Z,96167.73
2019-03-30T11:38:00.900Z,96164.79
2019-03-30T11:40:50.382Z,96162.31
2019-03-30T11:43:39.912Z,96163.20
2019-03-30T11:46:29.184Z,96151.61
2019-03-30T11:49:18.421Z,96149.35
2019-03-30T11:52:07.650Z,96148.17
2019-03-30T11:54:57.058Z,96143.39
2019-03-30T11:57:46.565Z,96138.67
2019-03-30T12:00:37.281Z,96134.69
2019-03-30T12:03:27.019Z,96129.58
2019-03-30T12:06:17.072Z,96126.34
2019-03-30T12:09:08.255Z,96123.63
2019-03-30T12:11:57.586Z,96116.72
2019-03-30T12:14:47.051Z,96117.17
2019-03-30T12:17:36.916Z,96117.47
2019-03-30T12:20:26.211Z,96108.23
2019-03-30T12:23:15.459Z,96109.66
2019-03-30T12:26:05.001Z,96101.92
2019-03-30T12:28:54.569Z,96099.31
2019-03-30T12:31:43.687Z,96093.71
2019-03-30T12:34:33.095Z,96100.97
2019-03-30T12:37:22.535Z,96094.86
2019-03-30T12:40:12.152Z,96090.14
2019-03-30T12:43:01.276Z,96082.77
2019-03-30T12:45:50.839Z,96082.42
2019-03-30T12:48:39.897Z,96072.67
2019-03-30T12:51:29.539Z,96078.72
2019-03-30T12:54:18.872Z,96072.77
2019-03-30T12:57:08.503Z,96069.95
2019-03-30T12:59:59.339Z,96064.76
2019-03-30T13:02:49.018Z,96063.24
2019-03-30T13:05:38.479Z,96050.31
2019-03-30T13:08:27.473Z,96048.50
2019-03-30T13:11:16.463Z,96049.05
2019-03-30T13:14:05.680Z,96044.86
2019-03-30T13:16:55.287Z,96041.98
2019-03-30T13:19:44.467Z,96037.73
2019-03-30T13:22:34.371Z,96041.89
2019-03-30T13:25:23.987Z,96039.87
2019-03-30T13:28:13.687Z,96034.46
2019-03-30T13:31:03.078Z,96036.45
2019-03-30T13:33:52.334Z,96032.53
2019-03-30T13:36:42.646Z,96025.92
2019-03-30T13:39:32.361Z,96025.92
2019-03-30T13:42:21.442Z,96025.53
2019-03-30T13:45:11.183Z,96021.45
2019-03-30T13:48:00.351Z,96017.85
2019-03-30T13:50:49.116Z,96018.39
2019-03-30T13:53:38.599Z,96014.55
2019-03-30T13:56:28.289Z,96013.03
2019-03-30T13:59:17.429Z,96014.74
2019-03-30T14:02:06.213Z,96010.06
2019-03-30T14:04:55.976Z,95997.72
2019-03-30T14:07:45.331Z,95993.44
2019-03-30T14:10:34.327Z,95991.95
2019-03-30T14:13:23.651Z,95994.48
2019-03-30T14:16:13.249Z,95991.27
2019-03-30T14:19:02.479Z,95999.47
2019-03-30T14:21:52.232Z,95991.30
2019-03-30T14:24:41.239Z,95981.32
2019-03-30T14:27:31.013Z,95978.42
2019-03-30T14:30:20.147Z,95980.00
2019-03-30T14:33:09.300Z,95971.27
2019-03-30T14:35:59.338Z,95975.36
2019-03-30T14:38:48.149Z,95970.98
2019-03-30T14:41:37.149Z,95964.29
2019-03-30T14:44:26.983Z,95971.14
2019-03-30T14:47:16.131Z,95967.72
2019-03-30T14:50:07.085Z,95961.37
2019-03-30T14:52:56.112Z,95955.23
2019-03-30T14:55:45.301Z,95956.40
2019-03-30T14:58:34.465Z,95954.81
2019-03-30T15:01:23.704Z,95948.94
2019-03-30T15:04:13.166Z,95949.75
2019-03-30T15:07:02.777Z,95940.83
2019-03-30T15:09:52.523Z,95937.95
2019-03-30T15:12:41.979Z,95940.45
2019-03-30T15:15:31.536Z,95938.44
2019-03-30T15:18:20.818Z,95928.83
2019-03-30T15:21:09.885Z,95927.23
2019-03-30T15:23:59.322Z,95920.70
2019-03-30T15:26:59.802Z,95918.53
2019-03-30T15:29:39.830Z,95920.19
2019-03-30T15:32:28.507Z,95912.06
2019-03-30T15:35:17.592Z,95912.41
2019-03-30T15:38:07.324Z,95905.31
2019-03-30T15:40:56.769Z,95906.45
2019-03-30T15:43:45.952Z,95900.80
2019-03-30T15:46:35.114Z,95898.44
2019-03-30T15:49:24.370Z,95896.86
2019-03-30T15:52:14.485Z,95894.19
2019-03-30T15:55:04.221Z,95885.63
2019-03-30T15:57:53.560Z,95890.91
2019-03-30T16:00:43.271Z,95885.05
2019-03-30T16:03:32.959Z,95883.25
2019-03-30T16:06:22.602Z,95887.05
2019-03-30T16:09:11.618Z,95879.44
2019-03-30T16:12:01.053Z,95879.05
2019-03-30T16:14:50.480Z,95883.32
2019-03-30T16:17:39.949Z,95883.23
2019-03-30T16:20:29.005Z,95876.05
2019-03-30T16:23:18.514Z,95874.99
2019-03-30T16:26:07.221Z,95876.75
2019-03-30T16:28:56.519Z,95878.25
2019-03-30T16:31:46.099Z,95874.30
2019-03-30T16:34:34.752Z,95872.47
2019-03-30T16:37:24.352Z,95873.27
2019-03-30T16:40:13.837Z,95868.94
2019-03-30T16:43:02.796Z,95877.30
2019-03-30T16:45:52.194Z,95872.75
2019-03-30T16:48:41.420Z,95874.84
2019-03-30T16:51:30.277Z,95870.74
2019-03-30T16:54:19.902Z,95867.63
2019-03-30T16:57:09.227Z,95862.52
2019-03-30T16:59:58.683Z,95866.19
2019-03-30T17:02:48.018Z,95865.42
2019-03-30T17:05:37.320Z,95867.64
2019-03-30T17:08:26.951Z,95862.87
2019-03-30T17:11:16.687Z,95862.87
2019-03-30T17:14:05.881Z,95867.53
2019-03-30T17:16:54.463Z,95861.12
2019-03-30T17:19:43.832Z,95866.59
2019-03-30T17:22:33.647Z,95862.70
2019-03-30T17:25:22.255Z,95859.00
2019-03-30T17:28:10.950Z,95866.36
2019-03-30T17:30:59.864Z,95865.53
2019-03-30T17:33:50.071Z,95864.78
2019-03-30T17:36:39.257Z,95862.91
2019-03-30T17:39:28.882Z,95866.71
2019-03-30T17:42:18.343Z,95866.43
2019-03-30T17:45:08.352Z,95869.82
2019-03-30T17:47:57.953Z,95868.86
2019-03-30T17:50:46.969Z,95873.30
2019-03-30T17:53:39.291Z,95874.47
2019-03-30T17:56:27.530Z,95875.29
2019-03-30T17:59:16.457Z,95876.86
2019-03-30T18:02:06.195Z,95876.73
2019-03-30T18:04:55.322Z,95876.70
2019-03-30T18:07:44.996Z,95876.72
2019-03-30T18:10:34.734Z,95875.59
2019-03-30T18:13:23.951Z,95885.16
2019-03-30T18:16:13.160Z,95884.72
2019-03-30T18:19:02.199Z,95885.67
2019-03-30T18:21:51.824Z,95884.04
2019-03-30T18:24:41.332Z,95884.04
2019-03-30T18:27:30.643Z,95900.30
2019-03-30T18:30:35.113Z,95900.72
2019-03-30T18:33:25.234Z,95905.13
2019-03-30T18:36:18.682Z,95905.13
2019-03-30T18:39:10.059Z,95906.13
2019-03-30T18:41:59.206Z,95903.81
2019-03-30T18:44:50.641Z,95910.02
2019-03-30T18:47:39.911Z,95909.30
2019-03-30T18:50:31.450Z,95913.63
2019-03-30T18:53:20.354Z,95915.39
2019-03-30T18:56:09.750Z,95915.50
2019-03-30T18:58:59.122Z,95920.42
2019-03-30T19:01:49.081Z,95925.89
2019-03-30T19:04:38.574Z,95922.00
2019-03-30T19:07:28.038Z,95922.19
2019-03-30T19:10:17.337Z,95921.13
2019-03-30T19:13:07.005Z,95920.33
2019-03-30T19:15:55.900Z,95926.81
2019-03-30T19:18:45.354Z,95927.53
2019-03-30T19:21:34.733Z,95931.31
2019-03-30T19:24:24.035Z,95931.70
2019-03-30T19:27:12.854Z,95933.95
2019-03-30T19:30:02.707Z,95926.89
2019-03-30T19:32:52.730Z,95926.39
2019-03-30T19:35:42.397Z,95928.19
2019-03-30T19:38:32.075Z,95933.80
2019-03-30T19:41:21.691Z,95935.03
2019-03-30T19:44:11.101Z,95930.07
2019-03-30T19:47:01.097Z,95932.09
2019-03-30T19:49:50.943Z,95928.74
2019-03-30T19:52:40.740Z,95929.15
2019-03-30T19:55:30.706Z,95927.84
2019-03-30T19:58:20.227Z,95930.69
2019-03-30T20:01:09.216Z,95935.19
2019-03-30T20:03:58.332Z,95934.66
2019-03-30T20:06:48.990Z,95926.43
2019-03-30T20:09:38.218Z,95925.23
2019-03-30T20:12:28.066Z,95925.78
2019-03-30T20:15:18.492Z,95932.73
2019-03-30T20:18:08.553Z,95932.82
2019-03-30T20:20:59.332Z,95932.12
2019-03-30T20:23:48.533Z,95934.81
2019-03-30T20:26:37.830Z,95930.36
2019-03-30T20:29:27.795Z,95932.63
2019-03-30T20:32:17.650Z,95929.70
2019-03-30T20:35:08.902Z,95925.36
2019-03-30T20:37:58.207Z,95927.19
2019-03-30T20:40:47.122Z,95926.34
2019-03-30T20:43:36.433Z,95924.73
2019-03-30T20:46:25.997Z,95920.00
2019-03-30T20:49:15.396Z,95923.43
2019-03-30T20:52:04.937Z,95915.09
2019-03-30T20:54:54.670Z,95914.74
2019-03-30T20:57:43.954Z,95915.80
2019-03-30T21:00:34.155Z,95911.16
2019-03-30T21:03:23.217Z,95917.90
2019-03-30T21:06:13.126Z,95914.64
2019-03-30T21:09:02.619Z,95916.58
2019-03-30T21:11:52.342Z,95917.48
2019-03-30T21:14:41.813Z,95918.11
2019-03-30T21:17:31.405Z,95914.41
2019-03-30T21:20:20.569Z,95921.07
2019-03-30T21:23:09.687Z,95909.27
2019-03-30T21:25:58.811Z,95914.29
2019-03-30T21:28:48.207Z,95920.14
2019-03-30T21:31:37.561Z,95912.83
2019-03-30T21:34:27.347Z,95920.47
2019-03-30T21:37:17.048Z,95913.60
2019-03-30T21:40:07.298Z,95912.00
2019-03-30T21:42:56.480Z,95907.76
2019-03-30T21:45:46.151Z,95913.94
2019-03-30T21:48:35.949Z,95918.59
2019-03-30T21:51:25.442Z,95919.26
2019-03-30T21:54:15.070Z,95924.59
2019-03-30T21:57:04.326Z,95929.53
2019-03-30T21:59:53.596Z,95925.31
2019-03-30T22:02:42.986Z,95927.94
2019-03-30T22:05:34.567Z,95928.27
2019-03-30T22:08:22.884Z,95924.25
2019-03-30T22:11:11.819Z,95928.70
2019-03-30T22:14:00.795Z,95930.17
2019-03-30T22:16:50.118Z,95921.42
2019-03-30T22:19:39.204Z,95920.88
2019-03-30T22:22:28.734Z,95917.67
2019-03-30T22:25:18.228Z,95914.91
2019-03-30T22:28:07.716Z,95922.66
2019-03-30T22:30:56.783Z,95918.16
2019-03-30T22:33:48.250Z,95931.13
2019-03-30T22:36:38.520Z,95924.02
2019-03-30T22:39:28.275Z,95925.60
2019-03-30T22:42:17.557Z,95930.06
2019-03-30T22:45:07.293Z,95929.33
2019-03-30T22:47:56.743Z,95931.09
2019-03-30T22:50:46.409Z,95930.21
2019-03-30T22:53:36.329Z,95926.56
2019-03-30T22:56:25.015Z,95925.27
2019-03-30T22:59:14.235Z,95923.91
2019-03-30T23:02:03.681Z,95929.51
2019-03-30T23:04:53.299Z,95924.84
2019-03-30T23:07:42.695Z,95924.66
2019-03-30T23:10:31.440Z,95925.19
2019-03-30T23:13:20.681Z,95919.93
2019-03-30T23:16:09.489Z,95920.97
2019-03-30T23:18:59.199Z,95926.70
2019-03-30T23:21:48.718Z,95919.92
2019-03-30T23:24:37.610Z,95920.08
2019-03-30T23:27:26.971Z,95920.12
2019-03-30T23:30:17.063Z,95915.30
2019-03-30T23:33:06.314Z,95919.09
2019-03-30T23:35:55.803Z,95917.28
2019-03-30T23:38:45.547Z,95919.05
2019-03-30T23:41:35.165Z,95923.05
2019-03-30T23:44:24.079Z,95926.87
2019-03-30T23:47:13.689Z,95924.46
2019-03-30T23:50:02.877Z,95923.72
2019-03-30T23:52:52.433Z,95919.82
2019-03-30T23:55:42.193Z,95928.55
2019-03-30T23:58:31.994Z,95926.73
